Goldfield, Nevada Weather observations

Data are for observation ending at time listed.
 Day   Time    Ave.   Ave.  Ave.  Vector   Max.   Stn.    Total    Solar   Ave.  
  of    of     Air    Rel.  Wind   Wind    Wind   Baro.  Precip.   Rad.    Soil  
Year   Day     Temp.  Hum.  Speed  Dir.    Gust   Pres.                    Temp. 
2022   (PST)    F      %     mph   deg.    mph     mb.     in.     W/m2     F   
------------------------------------------------------------------------------
 218   20:00   73.3    38    5.2   196      6.4   832.1    0.00       0    73.3
 218   20:10   73.0    40    4.7   181      6.5   832.3    0.00       0    73.2
 218   20:20   72.4    41    4.7   158      6.4   832.4    0.00       0    73.1
 218   20:30   72.1    42    5.3   179      7.7   832.5    0.00       0    73.0
 218   20:40   72.4    40    4.5   193      8.8   832.6    0.00       0    72.6
 218   20:50   71.5    42    4.8   201      6.2   832.7    0.00       0    72.5
 218   21:00   70.9    45    4.8   206      7.7   832.9    0.00       0    72.4
 218   21:10   70.7    44    6.7   225      8.7   833.0    0.00       0    72.0
 218   21:20   70.7    43    8.0   233     10.0   833.0    0.00       0    71.9
 218   21:30   70.5    45    7.9   231      9.6   833.0    0.00       0    71.4
 218   21:40   70.5    47    8.0   231      9.7   833.1    0.00       0    71.6
 218   21:50   70.5    48    8.1   231      9.8   833.1    0.00       0    71.4
 218   22:00   70.6    48    7.8   230      9.3   833.1    0.00       0    71.2
 218   22:10   70.6    48    7.1   228      9.0   833.1    0.00       0    71.1
 218   22:20   70.8    47    5.1   212      7.9   833.1    0.00       0    70.8
 218   22:30   70.5    50    2.9   172      5.6   833.1    0.00       0    70.7
 218   22:40   69.1    52    4.8   162      7.2   833.2    0.00       1    70.5
 218   22:50   68.7    53    5.2   171      6.9   833.3    0.00       0    70.7
 218   23:00   68.7    52    3.5   120      6.7   833.5    0.00       0    70.5
 218   23:10   69.7    50    5.5   168      8.0   833.4    0.00       0    70.2
 218   23:20   69.1    51    4.7   160      7.0   833.4    0.00       0    70.1
 218   23:30   68.2    53    4.1   133      6.2   833.5    0.00       0    70.1
 218   23:40   68.1    53    4.6   154      6.6   833.5    0.00       0    69.9
 218   23:50   67.4    54    4.7   166      6.4   833.6    0.00       0    69.5
 219    0:00   68.1    52    4.9   190      6.9   833.6    0.00       0    69.7
 219    0:10   68.5    51    2.8   181      6.0   833.5    0.00       0    69.5
 219    0:20   67.9    53    2.8   137      4.5   833.4    0.00       0    69.3
 219    0:30   67.5    54    5.0   148      7.5   833.4    0.00       0    69.2
 219    0:40   67.3    54    4.6   155      6.9   833.7    0.00       0    69.2
 219    0:50   67.2    54    5.1   185      7.6   833.7    0.00       0    68.9
 219    1:00   68.0    49    4.1   170      6.1   833.7    0.00       0    68.8
 219    1:10   68.2    48    3.8   168      5.9   833.7    0.00       0    68.7
 219    1:20   68.2    49    3.8   169      5.3   833.8    0.00       0    68.8
 219    1:30   68.1    51    3.2   167      5.3   833.9    0.00       0    68.7
 219    1:40   67.3    54    0.3    70      1.8   833.9    0.00       0    68.3
 219    1:50   66.1    56    1.3    92      2.6   834.0    0.00       0    68.4
 219    2:00   66.7    54    1.7   134      3.2   834.1    0.00       0    68.3
 219    2:10   66.8    55    0.4    78      2.6   834.1    0.00       0    68.2
 219    2:20   65.2    59    0.6   356      2.1   834.1    0.00       0    68.2
 219    2:30   63.7    63    0.3   287      1.3   834.2    0.00       0    68.1
 219    2:40   62.7    65    0.8   184      2.1   834.0    0.00       0    68.0
 219    2:50   62.2    66    0.8   151      2.0   834.0    0.00       0    67.8
 219    3:00   62.1    67    0.0   161      0.7   834.1    0.00       0    67.8
 219    3:10   62.2    67    0.4   126      1.5   834.2    0.00       0    67.7
 219    3:20   62.1    66    2.3   145      3.7   834.1    0.00       0    67.4
 219    3:30   62.5    66    1.6   156      3.4   834.0    0.00       0    67.2
 219    3:40   61.9    67    1.9   161      4.2   833.9    0.00       0    67.4
 219    3:50   61.6    68    0.2   313      1.4   834.0    0.00       0    67.2
 219    4:00   61.1    69    0.0     0      0.0   834.0    0.00       0    67.2
 219    4:10   61.0    69    0.7   144      2.4   834.2    0.00       0    66.9
 219    4:20   61.0    70    1.1   156      2.9   834.7    0.00       0    66.8
 219    4:30   60.8    70    2.3   165      4.6   834.8    0.00       0    66.6
 219    4:40   62.6    63    2.6   159      3.7   834.9    0.00       0    66.7
 219    4:50   62.4    66    1.9   169      4.1   834.8    0.00       1    66.6
 219    5:00   61.9    67    0.4   241      1.8   834.9    0.00       4    66.4
 219    5:10   61.0    68    1.3   254      3.1   834.9    0.00      11    66.5
 219    5:20   62.3    65    0.8   157      2.7   834.9    0.00      35    66.4
 219    5:30   63.9    63    2.2   162      3.1   835.0    0.00      67    66.3
 219    5:40   65.0    62    1.6   154      2.6   835.1    0.00     103    66.4
 219    5:50   65.8    61    2.8   150      4.1   835.1    0.00     137    66.4
 219    6:00   67.2    59    2.6   160      4.4   835.1    0.00     172    66.5
 219    6:10   69.3    56    2.0   162      3.4   835.0    0.00     207    66.7
 219    6:20   70.8    53    1.2   152      2.9   835.0    0.00     242    66.9
 219    6:30   73.8    48    0.3   110      1.8   835.0    0.00     275    67.2
 219    6:40   76.7    43    0.5    39      2.5   834.9    0.00     312    67.6
 219    6:50   75.5    44    1.3    24      2.7   834.9    0.00     351    67.9
 219    7:00   75.0    45    1.9    31      3.3   834.9    0.00     386    68.1
 219    7:10   75.7    42    1.2    35      3.0   834.9    0.00     420    68.5
 219    7:20   77.9    39    0.4    39      2.3   835.1    0.00     456    68.9
 219    7:30   80.6    35    0.2    16      2.1   835.1    0.00     490    69.2
 219    7:40   80.5    36    0.9    13      3.0   835.2    0.00     527    70.0
 219    7:50   77.6    41    2.8    23      5.4   835.1    0.00     559    70.5
 219    8:00   77.7    39    2.6    57      5.4   835.1    0.00     590    71.1
 219    8:10   78.2    38    3.4   104      8.8   835.1    0.00     620    71.6
 219    8:20   77.6    37    6.3   104     10.1   835.1    0.00     650    72.6
 219    8:30   77.5    37    6.6   100     12.1   835.1    0.00     679    72.9
 219    8:40   77.1    38    6.9   112     13.3   835.0    0.00     709    73.5
 219    8:50   78.0    36    6.3   105     11.2   835.0    0.00     739    73.8
 219    9:00   78.5    36    5.7   131     10.2   835.1    0.00     765    74.0
 219    9:10   78.5    35    6.8   137     11.2   835.0    0.00     791    74.6
 219    9:20   79.0    34    6.7   140     11.5   835.0    0.00     814    75.1
 219    9:30   79.8    31    7.0   114     12.9   835.0    0.00     839    75.6
 219    9:40   80.2    30    6.4   129     12.9   835.0    0.00     861    75.9
 219    9:50   80.6    30    6.6   127     14.2   834.9    0.00     880    76.3
 219   10:00   80.8    30    8.0   127     13.9   834.9    0.00     900    77.0
 219   10:10   81.0    29    7.3   156     12.3   834.8    0.00     919    77.4
 219   10:20   81.3    28    7.2   146     13.1   834.8    0.00     934    78.2
 219   10:30   81.6    29    5.9   110     12.1   834.7    0.00     946    78.6
 219   10:40   82.6    29    6.6   105     12.7   834.6    0.00     959    79.1
 219   10:50   82.4    29    7.9   138     14.2   834.5    0.00     971    79.6
 219   11:00   82.8    28    8.7   132     16.1   834.4    0.00     979    80.1
 219   11:10   83.0    27    8.8   121     14.1   834.4    0.00     956    80.2
 219   11:20   83.7    28    8.8   114     16.0   834.2    0.00    1006    80.7
 219   11:30   83.6    29    9.7   146     18.4   834.3    0.00    1038    80.7
 219   11:40   84.0    28    9.9   153     16.8   834.3    0.00    1067    80.9
 219   11:50   84.6    27    9.8   144     20.2   834.3    0.00    1008    81.1
 219   12:00   84.8    26   10.6   164     18.9   834.2    0.00    1043    81.4
 219   12:10   84.8    26    9.4   127     16.1   834.2    0.00    1020    81.8
 219   12:20   84.7    25   10.2   115     18.9   834.1    0.00     998    82.0
 219   12:30   84.9    25    8.4   130     15.1   834.1    0.00     994    82.3
 219   12:40   85.9    23    9.3   180     16.7   834.1    0.00     991    82.7
 219   12:50   85.4    22    9.2   122     18.3   833.9    0.00     985    82.5
 219   13:00   85.2    22   10.6   149     19.1   833.8    0.00     972    82.7
 219   13:10   85.4    21    7.0   129     14.7   833.8    0.00     958    83.0
 219   13:20   85.3    22   10.4   146     17.9   833.7    0.00     946    82.5
 219   13:30   85.2    24    8.7   158     18.6   833.5    0.00     923    82.1
 219   13:40   86.3    20    8.6   132     16.1   833.2    0.00     909    81.5
 219   13:50   86.4    22    8.5   132     19.1   833.0    0.00     891    81.3
 219   14:00   86.8    20    8.6   120     15.4   833.2    0.00     866    80.8
 219   14:10   86.5    22   10.2   157     17.5   832.9    0.00     847    80.5
 219   14:20   86.9    21    8.1   128     14.3   832.7    0.00     825    80.2
 219   14:30   86.8    22    7.6   128     15.2   832.6    0.00     776    80.2
 219   14:40   86.5    21    6.2   122     15.1   832.7    0.00     778    80.3
 219   14:50   87.7    22    7.4   155     16.0   832.5    0.00     754    80.5
 219   15:00   87.7    22    9.7   180     15.9   832.2    0.00     736    80.6
 219   15:10   87.4    22    6.3   106     14.2   832.1    0.00     688    80.9
 219   15:20   87.2    22    7.6   169     13.9   832.0    0.00     661    80.6
 219   15:30   87.2    19    7.5   116     13.9   831.9    0.00     546    80.9
 219   15:40   86.8    20    7.3   149     13.9   831.8    0.00     531    80.7
 219   15:50   87.1    20    6.3   180     12.3   831.8    0.00     564    80.5
 219   16:00   87.5    20    8.0   132     16.7   831.7    0.00     536    80.7
 219   16:10   86.9    20    7.2   153     16.4   831.7    0.00     496    79.9
 219   16:20   86.8    21    6.2   156     13.2   831.6    0.00     468    79.7
 219   16:30   87.0    21    8.3   156     13.7   831.6    0.00     430    79.7
 219   16:40   86.8    21    6.3   134     12.1   831.4    0.00     400    79.5
 219   16:50   86.9    23    7.6   178     11.0   831.4    0.00     363    79.4
 219   17:00   86.8    23    8.4   184     13.7   831.3    0.00     321    78.8
 219   17:10   86.3    22    8.7   172     15.0   831.2    0.00     289    79.1
 219   17:20   86.5    22    6.4   148     12.1   831.2    0.00     256    78.8
 219   17:30   86.4    22    6.5   155     13.9   831.2    0.00     221    78.5
 219   17:40   86.8    22    5.1   119      8.6   831.2    0.00     189    78.4
 219   17:50   86.5    21    6.1   137     11.1   831.2    0.00     160    78.3
 219   18:00   85.9    22    7.0   140     12.3   831.3    0.00     131    77.9
 219   18:10   84.6    22    5.9   131     10.5   831.2    0.00      95    78.0
 219   18:20   83.9    23    5.4   132      9.1   831.3    0.00      61    77.9
 219   18:30   83.0    24    5.7   150     10.7   831.4    0.00      19    77.7
 219   18:40   82.0    26    5.5   154      8.5   831.5    0.00      10    77.5
 219   18:50   81.1    26    4.9   155      7.5   831.6    0.00       6    77.3
 219   19:00   80.5    27    5.7   163      8.3   831.6    0.00       4    77.1
 219   19:10   80.2    28    5.6   164      8.6   831.7    0.00       0    76.9
 219   19:20   80.0    28    5.6   166      9.6   831.8    0.00       0    76.6
 219   19:30   79.7    29    5.8   165      9.1   831.9    0.00       0    77.0
 219   19:40   79.5    30    5.4   160      9.9   832.0    0.00       0    76.4
 219   19:50   77.9    32    4.1   145      8.5   832.1    0.00       0    76.1

Return to Goldfield, Nevada graphs page.


Western Regional Climate Center,wrcc@dri.edu